»·PEaware :: N660WC TQPF-TGPY

N660WC :: TQPF-TGPY

FLIGHT INFORMATION

Flight Status: Arrived
Operator: Privately registered:
United States
More flights under this callsign
Pilot: John H. (7647)
Aircraft: CESSNA T210 TURBO CENTURION
(T210)
More flights by this aircraft type
Origin: TQPF Wallblake
Anguilla
Destination: TGPY Point Salines Intl
Grenada
More flights between these airports :: More routes between these airports
Route: PJM SKB PPR FOF BNE SV
File this flight plan on PilotEdge
Remarks: PJM SKB PPR FOF BNE SV
Altitude:
(Current/Filed)
6,000ft
Speed:
(Current/Filed)
160kts
Departed: 09-Jun-18 10:22 AM
Arrived: 09-Jun-18 01:21 PM
Distance/Time
Traveled:
379nm/2:59
Distance/Time
To Go:
Arrived

Flight Plot

Page will automatically refresh every two minutes.

Flight plan parsing failed; only flown route is shown


Map Options




Map Legend


Flown Route
Filed Route
Departure Airport
Arrival Airport
Navaid (VOR, NDB)
Fix

Horizontal Profiles

Position Reports

Time Latitude Longitude Heading Altitude Ground
Speed
09-Jun-18 10:14 18.206117 -63.052629 180 106ft 0kts
09-Jun-18 10:15 18.206117 -63.052629 180 106ft 0kts
09-Jun-18 10:16 18.206116 -63.052629 180 106ft 0kts
09-Jun-18 10:17 18.206116 -63.052629 180 106ft 0kts
09-Jun-18 10:18 18.206117 -63.052629 180 106ft 0kts
09-Jun-18 10:19 18.205850 -63.052997 268 107ft 6kts
09-Jun-18 10:20 18.204826 -63.054612 269 110ft 13kts
09-Jun-18 10:21 18.204981 -63.058879 257 112ft 5kts
09-Jun-18 10:22 18.204868 -63.057559 88 112ft 47kts
09-Jun-18 10:23 18.206105 -63.033402 87 1014ft 100kts
09-Jun-18 10:24 18.214915 -63.001028 32 1877ft 140kts
09-Jun-18 10:25 18.252015 -63.013841 295 2804ft 165kts
09-Jun-18 10:26 18.245095 -63.058319 208 3729ft 157kts
09-Jun-18 10:27 18.206359 -63.058351 174 4605ft 138kts
09-Jun-18 10:28 18.167556 -63.068264 194 4983ft 154kts
09-Jun-18 10:29 18.129524 -63.082811 194 5004ft 160kts
09-Jun-18 10:30 18.096916 -63.095439 194 5004ft 163kts
09-Jun-18 10:31 18.053871 -63.112069 195 5001ft 166kts
09-Jun-18 10:32 18.020857 -63.108590 153 5001ft 156kts
09-Jun-18 10:33 17.982090 -63.089776 150 5000ft 155kts
09-Jun-18 10:34 17.943939 -63.070508 150 5000ft 156kts
09-Jun-18 10:35 17.905633 -63.051152 150 5000ft 155kts
09-Jun-18 10:36 17.868197 -63.032241 149 5004ft 155kts
09-Jun-18 10:37 17.829422 -63.012661 150 4999ft 155kts
09-Jun-18 10:38 17.791624 -62.993598 149 4999ft 156kts
09-Jun-18 10:39 17.751951 -62.973579 148 5000ft 159kts
09-Jun-18 10:40 17.711854 -62.953304 149 5001ft 160kts
09-Jun-18 10:41 17.676946 -62.935656 149 5001ft 161kts
09-Jun-18 10:42 17.638093 -62.916080 149 5001ft 161kts
09-Jun-18 10:43 17.598068 -62.895923 149 4997ft 161kts
09-Jun-18 10:44 17.558473 -62.875999 149 5001ft 160kts
09-Jun-18 10:45 17.520384 -62.856832 149 5001ft 160kts
09-Jun-18 10:46 17.480339 -62.836699 148 5000ft 159kts
09-Jun-18 10:47 17.441524 -62.817198 149 5000ft 160kts
09-Jun-18 10:48 17.402258 -62.797483 149 5001ft 160kts
09-Jun-18 10:49 17.363597 -62.778074 149 5000ft 158kts
09-Jun-18 10:50 17.324603 -62.758510 149 5000ft 157kts
09-Jun-18 10:51 17.288160 -62.735055 128 4999ft 153kts
09-Jun-18 10:52 17.259868 -62.702020 128 5007ft 153kts
09-Jun-18 10:53 17.231635 -62.668741 128 5000ft 153kts
09-Jun-18 10:54 17.203339 -62.635414 128 4999ft 153kts
09-Jun-18 10:55 17.175344 -62.602446 128 5000ft 154kts
09-Jun-18 10:56 17.149428 -62.571963 128 5000ft 154kts
09-Jun-18 10:57 17.122068 -62.539777 128 5000ft 154kts
09-Jun-18 10:58 17.093907 -62.506691 128 5001ft 154kts
09-Jun-18 10:59 17.070572 -62.479279 128 5002ft 154kts
09-Jun-18 11:00 17.059683 -62.466731 127 5000ft 154kts
09-Jun-18 11:01 17.032058 -62.434084 128 5000ft 154kts
09-Jun-18 11:02 17.004674 -62.401932 128 4997ft 154kts
09-Jun-18 11:03 16.976815 -62.369099 131 4999ft 151kts
09-Jun-18 11:04 16.949424 -62.337092 131 5001ft 150kts
09-Jun-18 11:05 16.921838 -62.304796 131 5001ft 150kts
09-Jun-18 11:06 16.894351 -62.272604 131 5003ft 150kts
09-Jun-18 11:07 16.866582 -62.240077 131 5002ft 151kts
09-Jun-18 11:08 16.838675 -62.207435 131 5002ft 151kts
09-Jun-18 11:09 16.810702 -62.174713 131 5004ft 151kts
09-Jun-18 11:10 16.782758 -62.142047 131 5003ft 151kts
09-Jun-18 11:11 16.754751 -62.109318 131 5003ft 151kts
09-Jun-18 11:12 16.726779 -62.076645 131 5003ft 151kts
09-Jun-18 11:13 16.698891 -62.044100 131 5002ft 151kts
09-Jun-18 11:14 16.670973 -62.011528 131 5004ft 151kts
09-Jun-18 11:15 16.643707 -61.979737 131 5002ft 151kts
09-Jun-18 11:16 16.616605 -61.948177 129 5002ft 153kts
09-Jun-18 11:17 16.589089 -61.916069 130 5002ft 153kts
09-Jun-18 11:18 16.560762 -61.883081 130 5000ft 153kts
09-Jun-18 11:19 16.532609 -61.850304 129 5000ft 153kts
09-Jun-18 11:20 16.504452 -61.817539 130 5002ft 153kts
09-Jun-18 11:21 16.477267 -61.785889 130 4976ft 155kts
09-Jun-18 11:22 16.448969 -61.753007 131 4974ft 154kts
09-Jun-18 11:23 16.420402 -61.719829 131 4974ft 154kts
09-Jun-18 11:24 16.392095 -61.686958 131 4972ft 154kts
09-Jun-18 11:25 16.364020 -61.654367 131 4973ft 154kts
09-Jun-18 11:26 16.336950 -61.622977 131 4974ft 154kts
09-Jun-18 11:27 16.310182 -61.591924 131 4974ft 154kts
09-Jun-18 11:28 16.282658 -61.560018 131 4974ft 154kts
09-Jun-18 11:29 16.250830 -61.535568 159 4974ft 155kts
09-Jun-18 11:30 16.211057 -61.522389 160 5003ft 155kts
09-Jun-18 11:31 16.170113 -61.509080 160 5000ft 155kts
09-Jun-18 11:32 16.128959 -61.495751 160 5001ft 155kts
09-Jun-18 11:33 16.087683 -61.482398 160 5000ft 155kts
09-Jun-18 11:34 16.046450 -61.469046 160 5001ft 155kts
09-Jun-18 11:35 16.005190 -61.455699 160 5000ft 155kts
09-Jun-18 11:36 15.963811 -61.442322 160 5001ft 156kts
09-Jun-18 11:37 15.934688 -61.432925 160 5001ft 156kts
09-Jun-18 11:38 15.895133 -61.420124 160 5001ft 156kts
09-Jun-18 11:39 15.857065 -61.407854 160 5002ft 156kts
09-Jun-18 11:40 15.815819 -61.394509 160 5002ft 155kts
09-Jun-18 11:41 15.774747 -61.381303 160 5032ft 155kts
09-Jun-18 11:42 15.733447 -61.367965 159 5029ft 156kts
09-Jun-18 11:43 15.692204 -61.354661 159 5029ft 155kts
09-Jun-18 11:44 15.651240 -61.341446 159 5031ft 156kts
09-Jun-18 11:45 15.611483 -61.328652 160 5028ft 156kts
09-Jun-18 11:46 15.571506 -61.315780 160 5030ft 156kts
09-Jun-18 11:47 15.530220 -61.302503 159 5032ft 156kts
09-Jun-18 11:48 15.489453 -61.289385 160 5032ft 156kts
09-Jun-18 11:49 15.448285 -61.276144 159 5031ft 155kts
09-Jun-18 11:50 15.407186 -61.262930 160 5030ft 155kts
09-Jun-18 11:51 15.365070 -61.249398 159 4976ft 160kts
09-Jun-18 11:52 15.323354 -61.236001 159 4984ft 161kts
09-Jun-18 11:53 15.280735 -61.222332 159 4975ft 161kts
09-Jun-18 11:54 15.238170 -61.208670 159 4971ft 161kts
09-Jun-18 11:55 15.195594 -61.195012 159 4978ft 161kts
09-Jun-18 11:56 15.153234 -61.181423 160 4976ft 161kts
09-Jun-18 11:57 15.110364 -61.167679 159 4976ft 161kts
09-Jun-18 11:58 15.067487 -61.153951 159 4975ft 161kts
09-Jun-18 11:59 15.024846 -61.140305 159 4975ft 161kts
09-Jun-18 12:00 14.983856 -61.127240 158 4999ft 157kts
09-Jun-18 12:01 14.942751 -61.113994 160 5001ft 153kts
09-Jun-18 12:02 14.902186 -61.101028 160 5001ft 153kts
09-Jun-18 12:03 14.862524 -61.088356 160 5003ft 153kts
09-Jun-18 12:04 14.821667 -61.075286 160 5003ft 153kts
09-Jun-18 12:05 14.781104 -61.062361 160 5005ft 153kts
09-Jun-18 12:06 14.740553 -61.049386 160 5003ft 153kts
09-Jun-18 12:07 14.700318 -61.036532 160 5003ft 153kts
09-Jun-18 12:08 14.660065 -61.023689 160 5003ft 153kts
09-Jun-18 12:09 14.621027 -61.011240 160 5003ft 153kts
09-Jun-18 12:10 14.579921 -61.000945 174 5003ft 154kts
09-Jun-18 12:11 14.537182 -60.999617 174 5001ft 154kts
09-Jun-18 12:12 14.494515 -60.998437 175 5002ft 155kts
09-Jun-18 12:13 14.451805 -60.997271 173 5001ft 156kts
09-Jun-18 12:14 14.408898 -60.996000 175 5000ft 156kts
09-Jun-18 12:15 14.365737 -60.994800 175 5003ft 160kts
09-Jun-18 12:16 14.321606 -60.993578 175 5002ft 161kts
09-Jun-18 12:17 14.277538 -60.992355 174 4996ft 160kts
09-Jun-18 12:18 14.233182 -60.991094 174 5002ft 160kts
09-Jun-18 12:19 14.189068 -60.989911 174 4982ft 161kts
09-Jun-18 12:20 14.144787 -60.988662 174 4975ft 160kts
09-Jun-18 12:21 14.100918 -60.987410 174 4974ft 160kts
09-Jun-18 12:22 14.056538 -60.986174 173 4977ft 160kts
09-Jun-18 12:23 14.013465 -60.984995 174 4973ft 160kts
09-Jun-18 12:24 13.969251 -60.983793 172 4976ft 159kts
09-Jun-18 12:25 13.932823 -60.982722 173 4974ft 159kts
09-Jun-18 12:26 13.890533 -60.981519 173 4971ft 158kts
09-Jun-18 12:27 13.846634 -60.980301 172 4975ft 158kts
09-Jun-18 12:28 13.802742 -60.979115 171 4975ft 158kts
09-Jun-18 12:29 13.758659 -60.977849 172 4975ft 159kts
09-Jun-18 12:30 13.715336 -60.984794 195 4976ft 165kts
09-Jun-18 12:31 13.672613 -61.002791 196 4976ft 166kts
09-Jun-18 12:32 13.630175 -61.020634 196 4973ft 165kts
09-Jun-18 12:33 13.587791 -61.038462 196 4976ft 165kts
09-Jun-18 12:34 13.545353 -61.056282 195 4976ft 165kts
09-Jun-18 12:35 13.502589 -61.074247 196 4980ft 166kts
09-Jun-18 12:36 13.460066 -61.092081 196 4979ft 166kts
09-Jun-18 12:37 13.418285 -61.109603 195 4975ft 166kts
09-Jun-18 12:38 13.375733 -61.127303 199 4949ft 165kts
09-Jun-18 12:39 13.333272 -61.145253 199 4950ft 164kts
09-Jun-18 12:40 13.290933 -61.162990 199 4949ft 165kts
09-Jun-18 12:41 13.248727 -61.180687 199 5008ft 160kts
09-Jun-18 12:42 13.218119 -61.193304 199 5945ft 152kts
09-Jun-18 12:43 13.174627 -61.211739 201 4432ft 173kts
09-Jun-18 12:44 13.132100 -61.232383 203 2970ft 168kts
09-Jun-18 12:45 13.091346 -61.252253 202 2946ft 163kts
09-Jun-18 12:46 13.050504 -61.272244 203 2949ft 163kts
09-Jun-18 12:47 13.010435 -61.291870 203 2949ft 162kts
09-Jun-18 12:48 12.969848 -61.311680 204 2950ft 166kts
09-Jun-18 12:49 12.928022 -61.332217 204 2949ft 168kts
09-Jun-18 12:50 12.886405 -61.352595 204 2948ft 168kts
09-Jun-18 12:51 12.844369 -61.373157 204 2948ft 167kts
09-Jun-18 12:52 12.802348 -61.393704 204 2948ft 167kts
09-Jun-18 12:53 12.760491 -61.414196 203 2921ft 168kts
09-Jun-18 12:54 12.718728 -61.434589 202 2925ft 166kts
09-Jun-18 12:55 12.677041 -61.454925 203 2921ft 166kts
09-Jun-18 12:56 12.635405 -61.475257 203 2921ft 166kts
09-Jun-18 12:57 12.595319 -61.494797 203 2920ft 166kts
09-Jun-18 12:58 12.553944 -61.515000 203 2923ft 166kts
09-Jun-18 12:59 12.512433 -61.535245 203 2921ft 165kts
09-Jun-18 13:00 12.470661 -61.555617 203 2921ft 169kts
09-Jun-18 13:01 12.434934 -61.585915 228 2923ft 171kts
09-Jun-18 13:02 12.403779 -61.622657 223 2952ft 173kts
09-Jun-18 13:03 12.371909 -61.659605 224 2948ft 176kts
09-Jun-18 13:04 12.339641 -61.697199 224 2944ft 176kts
09-Jun-18 13:05 12.308094 -61.733929 223 2946ft 176kts
09-Jun-18 13:06 12.276069 -61.771196 223 2999ft 174kts
09-Jun-18 13:07 12.243951 -61.808569 223 3003ft 176kts
09-Jun-18 13:08 12.211724 -61.846112 223 3003ft 176kts
09-Jun-18 13:09 12.179552 -61.883575 223 3002ft 176kts
09-Jun-18 13:10 12.147209 -61.921231 223 3002ft 176kts
09-Jun-18 13:11 12.115150 -61.958531 222 3003ft 175kts
09-Jun-18 13:12 12.072786 -61.969786 175 2630ft 163kts
09-Jun-18 13:13 12.026949 -61.969643 161 2003ft 158kts
09-Jun-18 13:14 12.007079 -61.940697 99 1998ft 116kts
09-Jun-18 13:15 12.005063 -61.910516 91 2000ft 107kts
09-Jun-18 13:16 12.004643 -61.882987 92 1480ft 82kts
09-Jun-18 13:17 12.004485 -61.860028 89 1307ft 83kts
09-Jun-18 13:18 12.004755 -61.838395 90 993ft 76kts
09-Jun-18 13:19 12.004427 -61.817752 93 410ft 70kts
09-Jun-18 13:20 12.004317 -61.798035 91 51ft 61kts
09-Jun-18 13:21 12.004881 -61.790379 16 48ft 8kts
09-Jun-18 13:22 12.005006 -61.788047 86 48ft 8kts
09-Jun-18 13:23 12.006085 -61.787527 89 50ft 0kts
09-Jun-18 13:24 12.006085 -61.787527 89 50ft 0kts

Navigation Log

Ident Type
Flight plan parsing failed, navigation log unavailable